< < Back
Terminal Aerodrome Forecast


Current Version              Previous Versions:   1  2  3  4  5  6  7  8  9  

Terminal Aerodrome Forecast

367
FTUS42 KFFC 281743
TAFFTY
TAF
KFTY 281743Z 2818/2918 24010KT P6SM SCT030 BKN035
     FM281900 27010G20KT P6SM VCSH BKN045
      TEMPO 2820/2823 VRB15G30KT 5SM SHRA BKN025
     FM290100 26007KT P6SM SCT050 BKN100
     FM290600 26006KT P6SM SCT250
     FM291500 28010KT P6SM SCT040=



Latest METAR

312
SAUS70 KWBC 281800 RRO
MTRFTY
METAR KFTY 281753Z 21010G16KT 10SM BKN036 BKN050 29/20 A3002 RMK AO2
SLP155 T02940200 10306 20228 58008


USA.gov is the U.S. government's official web portal to all federal, state and local government web resources and services.